Time;durP1;ratioP1;P1;durP2;ratioP2;P2;SDS_P1;SDS_P2;PMS_P1;PMS_P2;Temp;Humidity;BMP_temperature;BMP_pressure;BME280_temperature;BME280_humidity;BME280_pressure;Samples;Min_cycle;Max_cycle;Signal;HPM_P1;HPM_P2
2023/12/29 00:02:09;;;;;;;29.00;23.40;;;;;;;5.81;100.00;98921.02;109367;1253;58182;-74
2023/12/29 00:04:35;;;;;;;28.80;22.80;;;;;;;5.82;100.00;98922.75;109376;1253;58296;-73
2023/12/29 00:07:02;;;;;;;29.30;22.20;;;;;;;5.83;100.00;98921.12;109352;1253;66523;-74
2023/12/29 00:09:29;;;;;;;33.70;23.00;;;;;;;5.84;100.00;98915.77;109405;1253;60115;-73
2023/12/29 00:11:55;;;;;;;29.70;22.40;;;;;;;5.84;100.00;98910.46;109414;1253;65093;-73
2023/12/29 00:14:22;;;;;;;32.10;23.90;;;;;;;5.85;100.00;98905.50;108518;1253;1002644;-73
2023/12/29 00:16:48;;;;;;;27.20;21.60;;;;;;;5.85;100.00;98904.27;109348;1252;58236;-72
2023/12/29 00:19:15;;;;;;;29.20;21.10;;;;;;;5.86;100.00;98902.29;109050;1252;58384;-73
2023/12/29 00:21:42;;;;;;;27.00;21.90;;;;;;;5.86;100.00;98900.32;109426;1253;58169;-73
2023/12/29 00:24:08;;;;;;;26.70;22.40;;;;;;;5.86;100.00;98896.41;109381;1253;58351;-74
2023/12/29 00:26:35;;;;;;;29.30;22.10;;;;;;;5.87;100.00;98893.91;109399;1253;58222;-72
2023/12/29 00:29:02;;;;;;;28.10;21.60;;;;;;;5.87;100.00;98898.48;109351;1253;58342;-73
2023/12/29 00:31:28;;;;;;;30.00;22.80;;;;;;;5.88;100.00;98897.42;109380;1253;66246;-73
2023/12/29 00:33:55;;;;;;;28.60;23.40;;;;;;;5.88;100.00;98897.40;109417;1253;60063;-73
2023/12/29 00:36:21;;;;;;;27.70;23.10;;;;;;;5.87;100.00;98890.21;109366;1253;64106;-73
2023/12/29 00:38:48;;;;;;;30.70;22.90;;;;;;;5.87;100.00;98888.09;109372;1253;58431;-74
2023/12/29 00:41:15;;;;;;;30.10;22.20;;;;;;;5.87;100.00;98883.35;109389;1253;58333;-73
2023/12/29 00:43:41;;;;;;;29.40;23.70;;;;;;;5.86;100.00;98882.70;109376;1253;66243;-74
2023/12/29 00:46:08;;;;;;;25.10;21.50;;;;;;;5.87;100.00;98877.55;109443;1252;60183;-73
2023/12/29 00:48:35;;;;;;;29.10;21.90;;;;;;;5.87;100.00;98876.48;109367;1252;65045;-74
2023/12/29 00:51:02;;;;;;;29.70;22.50;;;;;;;5.87;100.00;98875.77;109378;1253;58215;-74
2023/12/29 00:53:31;;;;;;;27.60;21.90;;;;;;;5.87;100.00;98875.23;109155;1252;58348;-74
2023/12/29 00:55:59;;;;;;;26.60;22.00;;;;;;;5.88;100.00;98878.73;109401;1253;66409;-73
2023/12/29 00:58:26;;;;;;;29.10;22.10;;;;;;;5.87;100.00;98876.66;109412;1253;60816;-74
2023/12/29 01:00:53;;;;;;;29.20;22.60;;;;;;;5.87;100.00;98872.77;109368;1253;65067;-74
2023/12/29 01:03:20;;;;;;;29.00;22.40;;;;;;;5.86;100.00;98867.36;109357;1252;58127;-74
2023/12/29 01:05:47;;;;;;;31.00;24.40;;;;;;;5.85;100.00;98865.33;109382;1252;58158;-73
2023/12/29 01:08:14;;;;;;;33.70;23.90;;;;;;;5.83;100.00;98876.86;109385;1253;65965;-74
2023/12/29 01:10:40;;;;;;;35.70;26.10;;;;;;;5.81;100.00;98876.62;109359;1252;61080;-73
2023/12/29 01:13:07;;;;;;;35.50;27.10;;;;;;;5.78;100.00;98869.48;109362;1252;65047;-74
2023/12/29 01:15:34;;;;;;;37.90;27.20;;;;;;;5.76;100.00;98861.14;109352;1253;58251;-73
2023/12/29 01:18:00;;;;;;;40.40;29.90;;;;;;;5.74;100.00;98860.71;109467;1252;58086;-74
2023/12/29 01:20:27;;;;;;;41.50;30.60;;;;;;;5.73;100.00;98856.00;109483;1253;66173;-73
2023/12/29 01:22:53;;;;;;;37.80;29.60;;;;;;;5.72;100.00;98859.91;109521;1252;61092;-73
2023/12/29 01:25:20;;;;;;;38.60;29.70;;;;;;;5.72;100.00;98863.98;109458;1252;65027;-74
2023/12/29 01:27:46;;;;;;;43.00;30.40;;;;;;;5.71;100.00;98867.71;109469;1252;58248;-73
2023/12/29 01:30:13;;;;;;;42.70;32.10;;;;;;;5.73;100.00;98867.30;109443;1252;58088;-74
2023/12/29 01:32:39;;;;;;;39.90;29.20;;;;;;;5.74;100.00;98868.84;109445;1252;65167;-73
2023/12/29 01:35:06;;;;;;;37.40;29.00;;;;;;;5.74;100.00;98861.78;109490;1252;61157;-74
2023/12/29 01:37:33;;;;;;;39.60;29.40;;;;;;;5.74;100.00;98851.90;109460;1252;65256;-74
2023/12/29 01:39:59;;;;;;;38.40;28.80;;;;;;;5.74;100.00;98842.21;109270;1254;58211;-75
2023/12/29 01:42:26;;;;;;;34.30;26.40;;;;;;;5.75;100.00;98837.58;109484;1252;58345;-74
2023/12/29 01:44:54;;;;;;;33.40;25.00;;;;;;;5.78;100.00;98834.47;109436;1253;65083;-74
2023/12/29 01:47:22;;;;;;;30.10;21.60;;;;;;;5.80;100.00;98831.50;109211;1253;60174;-74
2023/12/29 01:49:49;;;;;;;26.10;21.30;;;;;;;5.83;100.00;98824.12;109257;1254;65141;-75
2023/12/29 01:52:17;;;;;;;24.60;18.40;;;;;;;5.86;100.00;98819.77;109519;1252;58262;-74
2023/12/29 01:54:46;;;;;;;23.10;18.60;;;;;;;5.88;100.00;98819.10;109482;1252;58240;-74
2023/12/29 01:57:13;;;;;;;20.40;16.90;;;;;;;5.88;100.00;98815.79;109463;1252;66452;-73
2023/12/29 01:59:41;;;;;;;20.90;17.10;;;;;;;5.86;100.00;98814.11;109494;1252;61707;-73
2023/12/29 02:02:08;;;;;;;20.40;15.80;;;;;;;5.85;100.00;98814.70;109542;1252;65638;-75
2023/12/29 02:04:36;;;;;;;21.00;15.90;;;;;;;5.85;100.00;98816.27;109487;1252;58242;-72
2023/12/29 02:07:03;;;;;;;20.30;15.30;;;;;;;5.86;100.00;98814.27;109495;1253;58347;-74
2023/12/29 02:09:30;;;;;;;18.10;14.90;;;;;;;5.88;100.00;98814.38;109509;1253;66223;-74
2023/12/29 02:11:56;;;;;;;18.00;14.50;;;;;;;5.89;100.00;98809.38;109496;1252;60041;-73
2023/12/29 02:14:23;;;;;;;18.60;14.80;;;;;;;5.87;100.00;98806.30;109477;1252;64151;-74
2023/12/29 02:17:05;;;;;;;20.60;15.40;;;;;;;5.81;100.00;98801.48;109454;1252;58359;-73
2023/12/29 02:19:43;;;;;;;17.40;14.30;;;;;;;5.74;100.00;98802.02;109487;1253;58257;-74
2023/12/29 02:22:11;;;;;;;18.00;13.70;;;;;;;5.68;100.00;98795.25;109484;1252;66619;-74
2023/12/29 02:24:38;;;;;;;14.80;12.40;;;;;;;5.66;100.00;98793.27;109482;1253;61647;-75
2023/12/29 02:27:23;;;;;;;18.40;13.80;;;;;;;5.63;100.00;98794.98;109484;1251;65055;-74
2023/12/29 02:30:15;;;;;;;17.60;13.60;;;;;;;5.62;100.00;98793.65;109456;1253;58518;-75
2023/12/29 02:32:44;;;;;;;16.20;12.50;;;;;;;5.62;100.00;98793.11;109457;1253;58537;-74
2023/12/29 02:35:14;;;;;;;17.20;13.30;;;;;;;5.60;100.00;98794.79;109492;1252;65133;-74
2023/12/29 02:37:41;;;;;;;;;;;;;;;5.56;100.00;98795.17;109518;1252;61354;-74
2023/12/29 02:40:09;;;;;;;14.90;12.40;;;;;;;5.50;100.00;98787.35;109495;1253;62904;-74
2023/12/29 02:42:35;;;;;;;16.00;13.40;;;;;;;5.44;100.00;98781.30;109160;1252;58502;-75
2023/12/29 02:45:03;;;;;;;17.00;12.80;;;;;;;5.36;100.00;98782.78;109471;1253;58403;-74
2023/12/29 02:47:30;;;;;;;15.10;12.00;;;;;;;5.27;100.00;98790.05;109291;1253;66229;-73
2023/12/29 02:49:56;;;;;;;15.20;11.80;;;;;;;5.20;100.00;98795.36;109534;1252;61030;-72
2023/12/29 02:52:23;;;;;;;13.80;11.00;;;;;;;5.16;100.00;98796.97;109491;1252;65103;-73
2023/12/29 02:54:49;;;;;;;12.60;10.80;;;;;;;5.17;100.00;98785.64;109483;1252;58189;-73
2023/12/29 02:57:16;;;;;;;13.40;9.80;;;;;;;5.20;100.00;98782.69;109472;1252;58144;-74
2023/12/29 02:59:42;;;;;;;12.10;9.30;;;;;;;5.22;100.00;98777.83;109381;1252;66286;-73
2023/12/29 03:02:09;;;;;;;12.60;10.50;;;;;;;5.23;100.00;98771.94;109473;1252;60377;-73
2023/12/29 03:04:35;;;;;;;12.70;10.70;;;;;;;5.20;100.00;98770.66;109480;1252;63905;-73
2023/12/29 03:07:02;;;;;;;12.30;10.50;;;;;;;5.17;100.00;98771.19;109517;1252;58418;-73
2023/12/29 03:09:29;;;;;;;13.00;11.60;;;;;;;5.13;100.00;98764.88;109372;1252;58150;-73
2023/12/29 03:11:55;;;;;;;15.30;11.90;;;;;;;5.09;100.00;98761.35;109496;1252;65288;-72
2023/12/29 03:14:22;;;;;;;15.20;12.50;;;;;;;5.06;100.00;98757.09;109504;1252;61183;-73
2023/12/29 03:16:48;;;;;;;13.30;11.50;;;;;;;5.04;100.00;98751.89;109498;1252;64026;-74
2023/12/29 03:19:15;;;;;;;11.50;9.80;;;;;;;5.04;100.00;98748.39;109473;1253;58176;-73
2023/12/29 03:21:41;;;;;;;11.80;10.20;;;;;;;5.05;100.00;98747.48;109473;1253;58188;-73
2023/12/29 03:24:08;;;;;;;12.70;11.30;;;;;;;5.04;100.00;98739.58;109480;1251;66413;-73
2023/12/29 03:26:35;;;;;;;12.60;9.50;;;;;;;5.02;100.00;98740.56;109432;1253;60836;-74
2023/12/29 03:29:01;;;;;;;14.40;10.40;;;;;;;5.02;100.00;98741.79;109521;1252;65404;-74
2023/12/29 03:31:28;;;;;;;9.30;7.30;;;;;;;5.04;100.00;98740.62;109430;1252;58535;-75
2023/12/29 03:33:54;;;;;;;10.10;7.00;;;;;;;5.12;100.00;98739.92;108720;1252;1002998;-74
2023/12/29 03:36:21;;;;;;;8.30;6.60;;;;;;;5.25;100.00;98735.73;109508;1254;66232;-74
2023/12/29 03:38:47;;;;;;;11.50;7.00;;;;;;;5.30;100.00;98734.80;109534;1252;61195;-75
2023/12/29 03:41:14;;;;;;;10.20;7.40;;;;;;;5.31;100.00;98733.16;109484;1252;65139;-73
2023/12/29 03:43:41;;;;;;;10.80;7.70;;;;;;;5.29;100.00;98732.00;109479;1252;58217;-73
2023/12/29 03:46:17;;;;;;;10.80;7.90;;;;;;;5.27;100.00;98735.80;109482;1252;58231;-73
2023/12/29 03:48:43;;;;;;;10.70;7.90;;;;;;;5.24;100.00;98732.09;109488;1254;65463;-74
2023/12/29 03:51:10;;;;;;;11.60;8.20;;;;;;;5.19;100.00;98733.23;109253;1252;60284;-73
2023/12/29 03:53:37;;;;;;;12.00;8.30;;;;;;;5.15;100.00;98733.95;109470;1252;65066;-73
2023/12/29 03:56:08;;;;;;;11.70;8.20;;;;;;;5.12;100.00;98735.34;109469;1252;58205;-73
2023/12/29 03:58:35;;;;;;;14.30;9.40;;;;;;;5.12;100.00;98735.17;109512;1252;58143;-74
2023/12/29 04:01:02;;;;;;;13.90;8.30;;;;;;;5.13;100.00;98732.09;109533;1252;66169;-74
2023/12/29 04:03:28;;;;;;;13.20;7.80;;;;;;;5.14;100.00;98734.86;109544;1253;60047;-71
2023/12/29 04:05:55;;;;;;;11.50;7.30;;;;;;;5.16;100.00;98737.77;109498;1252;64051;-74
2023/12/29 04:08:21;;;;;;;10.40;6.90;;;;;;;5.20;100.00;98732.83;109527;1252;58196;-73
2023/12/29 04:10:48;;;;;;;8.50;6.40;;;;;;;5.26;100.00;98735.86;109563;1253;58655;-73
2023/12/29 04:13:14;;;;;;;8.20;6.10;;;;;;;5.34;100.00;98732.29;109492;1252;65343;-73
2023/12/29 04:15:41;;;;;;;8.00;7.20;;;;;;;5.45;100.00;98723.33;109561;1252;60063;-74
2023/12/29 04:18:08;;;;;;;9.00;8.10;;;;;;;5.55;100.00;98717.85;109362;1252;64051;-75
2023/12/29 04:20:34;;;;;;;11.30;10.20;;;;;;;5.62;100.00;98718.73;109467;1252;58167;-74
2023/12/29 04:23:01;;;;;;;9.30;8.40;;;;;;;5.67;100.00;98719.88;109448;1252;58246;-74
2023/12/29 04:25:27;;;;;;;8.20;6.30;;;;;;;5.71;100.00;98717.02;109557;1252;65361;-72
2023/12/29 04:27:54;;;;;;;6.40;5.80;;;;;;;5.75;100.00;98712.24;109514;1254;60282;-74
2023/12/29 04:30:20;;;;;;;7.10;6.30;;;;;;;5.80;100.00;98713.08;109494;1252;65158;-74
2023/12/29 04:32:47;;;;;;;10.20;6.40;;;;;;;5.85;100.00;98714.90;109473;1252;58547;-73
2023/12/29 04:35:14;;;;;;;9.30;7.70;;;;;;;5.95;100.00;98718.98;109389;1252;58252;-74
2023/12/29 04:37:44;;;;;;;9.30;7.80;;;;;;;6.03;100.00;98722.64;109529;1252;66212;-73
2023/12/29 04:40:11;;;;;;;;;;;;;;;6.08;100.00;98720.07;109492;1252;60011;-74
2023/12/29 04:42:38;;;;;;;9.30;6.90;;;;;;;6.12;100.00;98718.60;109488;1252;64243;-74
2023/12/29 04:45:05;;;;;;;10.40;7.20;;;;;;;6.18;100.00;98721.48;109458;1253;59338;-73
2023/12/29 04:47:32;;;;;;;11.10;6.90;;;;;;;6.24;100.00;98719.58;109368;1252;59030;-73
2023/12/29 04:49:58;;;;;;;8.30;6.70;;;;;;;6.30;100.00;98715.71;109454;1252;67011;-72
2023/12/29 04:52:25;;;;;;;8.10;6.50;;;;;;;6.36;100.00;98714.00;109436;1253;61235;-73
2023/12/29 04:54:52;;;;;;;7.00;5.90;;;;;;;6.42;100.00;98712.61;109508;1253;65201;-73
2023/12/29 04:57:18;;;;;;;10.20;6.40;;;;;;;6.48;100.00;98708.05;109441;1252;59005;-74
2023/12/29 04:59:45;;;;;;;10.80;6.70;;;;;;;6.55;100.00;98707.47;109468;1252;59432;-73
2023/12/29 05:02:12;;;;;;;12.10;8.20;;;;;;;6.63;100.00;98706.89;109473;1252;67149;-73
2023/12/29 05:04:38;;;;;;;9.00;7.80;;;;;;;6.67;100.00;98709.85;109507;1252;61783;-73
2023/12/29 05:07:05;;;;;;;13.40;8.50;;;;;;;6.69;100.00;98712.38;109487;1254;65343;-73
2023/12/29 05:09:32;;;;;;;10.50;7.70;;;;;;;6.72;100.00;98712.04;109476;1252;58965;-74
2023/12/29 05:11:58;;;;;;;7.90;5.80;;;;;;;6.73;100.00;98714.78;109499;1252;59073;-74
2023/12/29 05:14:25;;;;;;;9.10;6.60;;;;;;;6.75;100.00;98720.48;109505;1253;67043;-73
2023/12/29 05:16:51;;;;;;;7.60;6.10;;;;;;;6.77;100.00;98715.80;109531;1252;61060;-72
2023/12/29 05:19:18;;;;;;;9.10;7.50;;;;;;;6.79;100.00;98719.41;109492;1255;65284;-74
2023/12/29 05:21:44;;;;;;;9.40;7.00;;;;;;;6.79;100.00;98720.44;109465;1253;59367;-74
2023/12/29 05:24:11;;;;;;;8.40;6.70;;;;;;;6.80;100.00;98718.64;109473;1252;59110;-73
2023/12/29 05:26:38;;;;;;;8.50;7.40;;;;;;;6.81;100.00;98718.76;109536;1252;66965;-74
2023/12/29 05:29:04;;;;;;;8.70;7.00;;;;;;;6.81;100.00;98719.27;109484;1253;59987;-72
2023/12/29 05:31:31;;;;;;;8.30;6.30;;;;;;;6.81;100.00;98721.05;109441;1254;65503;-73
2023/12/29 05:33:57;;;;;;;9.70;8.80;;;;;;;6.80;100.00;98717.02;109475;1252;59067;-73
2023/12/29 05:36:24;;;;;;;10.00;8.80;;;;;;;6.78;100.00;98706.52;109488;1252;59245;-73
2023/12/29 05:38:50;;;;;;;9.00;7.70;;;;;;;6.77;100.00;98704.67;109488;1252;66999;-75
2023/12/29 05:41:19;;;;;;;8.30;7.40;;;;;;;6.76;100.00;98706.48;109564;1253;61295;-75
2023/12/29 05:43:45;;;;;;;7.80;6.50;;;;;;;6.75;100.00;98709.71;109382;1252;65292;-74
2023/12/29 05:46:12;;;;;;;7.20;6.50;;;;;;;6.73;100.00;98711.77;109479;1254;59013;-73
2023/12/29 05:48:39;;;;;;;7.10;5.60;;;;;;;6.72;100.00;98716.09;109517;1253;58850;-74
2023/12/29 05:51:09;;;;;;;5.70;5.00;;;;;;;6.72;100.00;98725.95;109436;1256;67051;-74
2023/12/29 05:53:36;;;;;;;5.60;4.50;;;;;;;6.76;100.00;98728.77;109502;1252;61358;-73
2023/12/29 05:56:03;;;;;;;5.40;4.30;;;;;;;6.80;100.00;98724.09;109458;1254;64130;-74
2023/12/29 05:58:29;;;;;;;4.50;4.10;;;;;;;6.85;100.00;98724.70;109463;1252;58996;-75
2023/12/29 06:00:56;;;;;;;5.10;4.40;;;;;;;6.88;100.00;98730.00;109425;1254;59379;-74
2023/12/29 06:03:23;;;;;;;7.80;4.50;;;;;;;6.91;100.00;98733.52;109251;1252;66232;-75
2023/12/29 06:05:49;;;;;;;6.50;4.50;;;;;;;6.95;100.00;98734.74;109427;1252;59863;-74
2023/12/29 06:08:16;;;;;;;6.20;4.70;;;;;;;7.01;100.00;98735.48;109476;1254;65117;-74
2023/12/29 06:10:42;;;;;;;5.00;4.50;;;;;;;7.07;100.00;98739.39;109442;1252;58945;-73
2023/12/29 06:13:09;;;;;;;5.50;4.70;;;;;;;7.11;100.00;98730.83;109498;1252;58972;-73
2023/12/29 06:15:36;;;;;;;7.30;4.90;;;;;;;7.15;100.00;98728.46;109305;1252;67298;-74
2023/12/29 06:18:03;;;;;;;6.20;4.20;;;;;;;7.20;100.00;98730.30;109495;1252;58995;-73
2023/12/29 06:20:29;;;;;;;5.30;4.00;;;;;;;7.27;100.00;98724.42;109423;1253;65228;-73
2023/12/29 06:22:56;;;;;;;5.00;3.70;;;;;;;7.34;100.00;98723.36;109399;1253;58973;-75
2023/12/29 06:25:23;;;;;;;5.00;4.00;;;;;;;7.39;100.00;98720.02;109416;1252;59059;-74
2023/12/29 06:27:49;;;;;;;4.20;3.70;;;;;;;7.48;100.00;98709.80;109459;1253;67040;-77
2023/12/29 06:30:16;;;;;;;4.90;4.20;;;;;;;7.55;100.00;98703.21;109431;1252;60162;-74
2023/12/29 06:32:43;;;;;;;5.60;4.40;;;;;;;7.59;100.00;98722.23;109435;1253;65067;-74
2023/12/29 06:35:13;;;;;;;6.30;4.90;;;;;;;7.62;100.00;98728.05;109420;1253;58965;-75
2023/12/29 06:37:40;;;;;;;5.70;4.60;;;;;;;7.64;100.00;98728.10;109419;1253;58947;-74
2023/12/29 06:40:08;;;;;;;6.00;4.40;;;;;;;7.66;100.00;98723.55;109153;1252;66006;-74
2023/12/29 06:42:34;;;;;;;6.10;4.90;;;;;;;7.68;100.00;98724.33;109249;1252;61259;-73
2023/12/29 06:45:01;;;;;;;8.40;5.00;;;;;;;7.68;100.00;98725.05;109429;1255;64067;-73
2023/12/29 06:47:28;;;;;;;5.20;4.20;;;;;;;7.67;100.00;98731.47;109437;1252;58981;-74
2023/12/29 06:49:54;;;;;;;8.80;5.80;;;;;;;7.67;100.00;98725.45;109471;1252;59784;-74
2023/12/29 06:52:21;;;;;;;6.40;4.70;;;;;;;7.68;100.00;98718.83;109414;1253;66982;-75
2023/12/29 06:54:47;;;;;;;6.50;4.70;;;;;;;7.74;100.00;98713.71;109053;1252;59966;-74
2023/12/29 06:57:15;;;;;;;5.10;4.50;;;;;;;7.81;100.00;98709.20;109434;1257;65318;-75
2023/12/29 06:59:41;;;;;;;6.10;5.10;;;;;;;7.86;100.00;98707.86;109149;1252;59026;-74
2023/12/29 07:02:08;;;;;;;7.50;5.20;;;;;;;7.86;100.00;98699.16;109423;1253;59172;-75
2023/12/29 07:04:34;;;;;;;6.00;4.70;;;;;;;7.85;100.00;98693.10;109411;1253;66015;-72
2023/12/29 07:07:02;;;;;;;6.80;5.20;;;;;;;7.81;100.00;98691.54;109412;1253;61071;-74
2023/12/29 07:09:28;;;;;;;6.10;4.50;;;;;;;7.77;100.00;98693.89;109423;1253;65059;-74
2023/12/29 07:11:55;;;;;;;8.70;5.00;;;;;;;7.77;100.00;98695.67;109403;1253;59007;-74
2023/12/29 07:14:21;;;;;;;5.90;4.80;;;;;;;7.80;100.00;98700.60;109454;1253;58870;-74
2023/12/29 07:16:48;;;;;;;7.20;5.20;;;;;;;7.84;100.00;98701.60;109368;1257;66977;-74
2023/12/29 07:19:15;;;;;;;6.70;4.90;;;;;;;7.87;100.00;98703.40;109427;1253;61003;-74
2023/12/29 07:21:41;;;;;;;7.30;5.10;;;;;;;7.89;100.00;98706.44;109415;1253;64923;-75
2023/12/29 07:24:08;;;;;;;5.60;4.50;;;;;;;7.93;100.00;98710.48;109406;1253;58936;-73
2023/12/29 07:26:35;;;;;;;7.20;4.10;;;;;;;7.99;100.00;98706.58;109444;1253;59038;-74
2023/12/29 07:29:02;;;;;;;5.10;3.70;;;;;;;8.07;100.00;98702.72;109366;1253;67016;-74
2023/12/29 07:31:28;;;;;;;4.70;3.40;;;;;;;8.15;100.00;98703.82;109391;1253;61178;-73
2023/12/29 07:33:55;;;;;;;3.70;3.30;;;;;;;8.26;100.00;98710.89;109399;1256;65123;-74
2023/12/29 07:36:21;;;;;;;3.60;2.90;;;;;;;8.35;100.00;98716.73;109248;1253;59079;-74
2023/12/29 07:38:48;;;;;;;3.50;3.00;;;;;;;8.43;100.00;98721.77;109412;1256;59056;-75
2023/12/29 07:41:15;;;;;;;4.00;2.90;;;;;;;8.52;100.00;98716.92;109416;1253;67387;-74
2023/12/29 07:43:42;;;;;;;3.80;2.90;;;;;;;8.61;100.00;98716.19;109448;1253;61368;-74
2023/12/29 07:46:08;;;;;;;3.80;2.70;;;;;;;8.67;100.00;98717.92;109454;1253;65048;-73
2023/12/29 07:48:35;;;;;;;5.00;2.90;;;;;;;8.72;100.00;98723.97;109435;1254;59189;-81
2023/12/29 07:51:05;;;;;;;4.60;3.40;;;;;;;8.77;100.00;98728.28;109260;1254;59055;-74
2023/12/29 07:53:32;;;;;;;;;;;;;;;8.83;100.00;98734.80;109375;1256;65991;-74
2023/12/29 07:55:58;;;;;;;5.90;4.50;;;;;;;8.90;100.00;98742.00;109423;1253;59011;-74
2023/12/29 07:58:25;;;;;;;5.90;4.00;;;;;;;8.95;100.00;98741.46;109410;1253;59016;-72
2023/12/29 08:00:51;;;;;;;6.20;4.20;;;;;;;9.00;100.00;98739.20;109011;1257;59098;-74
2023/12/29 08:03:18;;;;;;;4.80;3.80;;;;;;;9.03;100.00;98733.69;109411;1254;59297;-74
2023/12/29 08:05:46;;;;;;;6.00;3.70;;;;;;;9.07;100.00;98733.12;109426;1253;67065;-74
2023/12/29 08:08:12;;;;;;;4.30;3.50;;;;;;;9.10;100.00;98727.37;109361;1254;61092;-72
2023/12/29 08:10:39;;;;;;;4.70;3.50;;;;;;;9.14;100.00;98717.91;109388;1253;65097;-73
2023/12/29 08:13:08;;;;;;;5.00;3.60;;;;;;;9.18;100.00;98712.34;109393;1257;58930;-73
2023/12/29 08:15:35;;;;;;;3.80;3.00;;;;;;;9.22;100.00;98712.58;109396;1253;58952;-73
2023/12/29 08:18:02;;;;;;;5.90;3.10;;;;;;;9.29;100.00;98709.48;109427;1254;66975;-73
2023/12/29 08:20:28;;;;;;;3.40;2.70;;;;;;;9.41;100.00;98713.32;109440;1253;60177;-74
2023/12/29 08:22:56;;;;;;;4.10;3.00;;;;;;;9.55;100.00;98721.95;109410;1255;64168;-72
2023/12/29 08:25:23;;;;;;;5.60;3.80;;;;;;;9.67;100.00;98725.02;109398;1254;59017;-72
2023/12/29 08:27:50;;;;;;;3.90;2.90;;;;;;;9.80;100.00;98729.64;109373;1254;59241;-72
2023/12/29 08:30:16;;;;;;;5.00;3.30;;;;;;;9.92;100.00;98731.16;109406;1256;64791;-73
2023/12/29 08:32:43;;;;;;;4.40;3.70;;;;;;;10.03;100.00;98729.17;109380;1253;61260;-72
2023/12/29 08:35:11;;;;;;;5.50;3.60;;;;;;;10.14;100.00;98730.33;109184;1253;62768;-74
2023/12/29 08:37:38;;;;;;;5.10;3.30;;;;;;;10.24;100.00;98729.82;109184;1253;58985;-73
2023/12/29 08:40:06;;;;;;;4.90;3.20;;;;;;;10.31;100.00;98731.83;109405;1254;59145;-73
2023/12/29 08:42:33;;;;;;;3.80;3.00;;;;;;;10.35;100.00;98737.63;109163;1253;67038;-72
2023/12/29 08:45:00;;;;;;;3.50;2.50;;;;;;;10.37;100.00;98739.95;109254;1253;60142;-72
2023/12/29 08:47:26;;;;;;;4.10;2.10;;;;;;;10.39;100.00;98740.90;109392;1254;64221;-72
2023/12/29 08:49:54;;;;;;;3.20;1.60;;;;;;;10.39;100.00;98743.17;109382;1253;59322;-73
2023/12/29 08:52:20;;;;;;;2.20;1.90;;;;;;;10.39;100.00;98744.80;109443;1253;59199;-73
2023/12/29 08:54:47;;;;;;;3.30;2.30;;;;;;;10.38;100.00;98743.63;109413;1253;65899;-73
2023/12/29 08:57:14;;;;;;;3.40;2.20;;;;;;;10.40;100.00;98745.42;109381;1254;60094;-76
2023/12/29 08:59:40;;;;;;;2.60;2.40;;;;;;;10.43;100.00;98745.92;109381;1254;65051;-74
2023/12/29 09:02:07;;;;;;;2.50;2.20;;;;;;;10.47;100.00;98748.82;109378;1253;59232;-72
2023/12/29 09:04:33;;;;;;;2.20;1.80;;;;;;;10.50;100.00;98746.66;109373;1254;58989;-73
2023/12/29 09:07:00;;;;;;;2.60;1.90;;;;;;;10.53;100.00;98745.19;109239;1254;66156;-73
2023/12/29 09:09:27;;;;;;;3.40;2.20;;;;;;;10.58;100.00;98743.08;109384;1253;60212;-72
2023/12/29 09:11:53;;;;;;;2.60;1.70;;;;;;;10.63;100.00;98737.78;109219;1254;65119;-73
2023/12/29 09:14:20;;;;;;;3.20;1.90;;;;;;;10.68;100.00;98732.10;109395;1254;59091;-73
2023/12/29 09:16:46;;;;;;;3.10;2.00;;;;;;;10.71;100.00;98729.52;109379;1254;59024;-73
2023/12/29 09:19:13;;;;;;;2.60;1.90;;;;;;;10.75;100.00;98730.14;109419;1254;67231;-73
2023/12/29 09:21:39;;;;;;;2.00;1.80;;;;;;;10.82;100.00;98736.44;109409;1253;61069;-73
2023/12/29 09:24:06;;;;;;;2.50;2.00;;;;;;;10.86;100.00;98740.02;109387;1253;64198;-73
2023/12/29 09:26:33;;;;;;;1.70;1.60;;;;;;;10.90;100.00;98737.23;109381;1253;59312;-73
2023/12/29 09:29:00;;;;;;;2.80;2.10;;;;;;;10.97;100.00;98728.55;109440;1253;59782;-74
2023/12/29 09:31:26;;;;;;;2.20;2.00;;;;;;;11.02;100.00;98724.09;109381;1254;65864;-73
2023/12/29 09:33:53;;;;;;;2.60;2.00;;;;;;;11.04;100.00;98723.80;109404;1253;60461;-73
2023/12/29 09:36:19;;;;;;;2.10;1.70;;;;;;;11.06;100.00;98718.13;109125;1254;65072;-73
2023/12/29 09:38:46;;;;;;;2.70;1.90;;;;;;;11.10;100.00;98715.02;109360;1253;58908;-75
2023/12/29 09:41:16;;;;;;;2.00;1.70;;;;;;;11.14;100.00;98703.65;109402;1253;58985;-74
2023/12/29 09:43:45;;;;;;;2.10;1.90;;;;;;;11.16;100.00;98703.32;109131;1254;66076;-73
2023/12/29 09:46:15;;;;;;;2.30;2.10;;;;;;;11.18;100.00;98702.84;109215;1254;60306;-74
2023/12/29 09:48:46;;;;;;;2.20;1.60;;;;;;;11.20;100.00;98702.70;109398;1253;65078;-74
2023/12/29 09:51:13;;;;;;;2.50;2.00;;;;;;;11.23;100.00;98704.26;109230;1253;59280;-74
2023/12/29 09:53:41;;;;;;;2.80;2.10;;;;;;;11.26;100.00;98697.08;109407;1253;59338;-74
2023/12/29 09:56:08;;;;;;;2.50;2.20;;;;;;;11.29;100.00;98695.11;109126;1254;67015;-74
2023/12/29 09:58:38;;;;;;;2.80;2.00;;;;;;;11.32;100.00;98695.23;109403;1254;60217;-72
2023/12/29 10:01:06;;;;;;;2.50;2.20;;;;;;;11.35;100.00;98691.06;109385;1253;63996;-73
2023/12/29 10:03:33;;;;;;;4.00;2.50;;;;;;;11.37;100.00;98688.11;109380;1254;59031;-73
2023/12/29 10:06:03;;;;;;;2.40;2.20;;;;;;;11.37;100.00;98685.23;109395;1253;58957;-74
2023/12/29 10:08:33;;;;;;;1.80;1.70;;;;;;;11.39;100.00;98685.27;109371;1254;67021;-74
2023/12/29 10:11:01;;;;;;;2.60;2.20;;;;;;;11.42;100.00;98681.99;109367;1254;61214;-74
2023/12/29 10:13:30;;;;;;;3.00;2.20;;;;;;;11.47;100.00;98677.76;109247;1254;63995;-73
2023/12/29 10:16:13;;;;;;;2.30;1.80;;;;;;;11.53;100.00;98676.40;109390;1253;59226;-75
2023/12/29 10:19:03;;;;;;;2.30;1.90;;;;;;;11.58;100.00;98670.13;109403;1254;58985;-75
2023/12/29 10:21:37;;;;;;;1.70;1.60;;;;;;;11.62;100.00;98660.02;109383;1254;67153;-74
2023/12/29 10:24:12;;;;;;;2.50;1.70;;;;;;;11.64;100.00;98657.95;109368;1253;61116;-74
2023/12/29 10:26:40;;;;;;;3.30;1.70;;;;;;;11.68;100.00;98656.92;109354;1253;65245;-74
2023/12/29 10:29:07;;;;;;;2.90;1.70;;;;;;;11.71;100.00;98660.40;109383;1252;59073;-73
2023/12/29 10:31:34;;;;;;;2.30;2.00;;;;;;;11.72;100.00;98655.91;109394;1253;59022;-74
2023/12/29 10:34:28;;;;;;;3.30;2.10;;;;;;;11.72;100.00;98656.60;109436;1252;67022;-74
2023/12/29 10:36:57;;;;;;;1.90;1.60;;;;;;;11.73;100.00;98661.85;109431;1254;60131;-74
2023/12/29 10:39:24;;;;;;;2.10;1.90;;;;;;;11.76;100.00;98653.30;109467;1254;63819;-75
2023/12/29 10:42:08;;;;;;;1.70;1.50;;;;;;;11.77;100.00;98654.80;109444;1252;58974;-74
2023/12/29 10:44:36;;;;;;;2.80;2.10;;;;;;;11.78;100.00;98650.79;109451;1252;58976;-74
2023/12/29 10:47:10;;;;;;;1.80;1.50;;;;;;;11.79;100.00;98649.00;109402;1253;66167;-74
2023/12/29 10:49:38;;;;;;;2.30;1.70;;;;;;;11.78;100.00;98648.69;109477;1253;60194;-74
2023/12/29 10:52:15;;;;;;;2.10;1.90;;;;;;;11.77;100.00;98649.28;109437;1252;64067;-73
2023/12/29 10:54:45;;;;;;;2.00;1.80;;;;;;;11.77;100.00;98647.33;109432;1253;58920;-74
2023/12/29 10:57:12;;;;;;;2.70;2.10;;;;;;;11.77;100.00;98650.00;109437;1252;59097;-74
2023/12/29 10:59:39;;;;;;;3.40;2.00;;;;;;;11.77;100.00;98647.84;109405;1253;67198;-76
2023/12/29 11:02:08;;;;;;;2.30;2.00;;;;;;;11.75;100.00;98643.41;109499;1252;61692;-74
2023/12/29 11:04:34;;;;;;;1.90;1.60;;;;;;;11.71;100.00;98640.31;109388;1254;65217;-70
2023/12/29 11:07:01;;;;;;;1.90;1.60;;;;;;;11.70;100.00;98640.21;109372;1253;59244;-72
2023/12/29 11:09:29;;;;;;;2.30;2.00;;;;;;;11.69;100.00;98640.52;109292;1253;59162;-72
2023/12/29 11:11:59;;;;;;;2.00;1.80;;;;;;;11.68;100.00;98642.88;109333;1253;67031;-72
2023/12/29 11:14:28;;;;;;;2.90;2.00;;;;;;;11.68;100.00;98648.15;109384;1253;61012;-72
2023/12/29 11:16:57;;;;;;;3.20;2.00;;;;;;;11.70;100.00;98644.14;109241;1253;65192;-74
2023/12/29 11:19:24;;;;;;;2.50;2.20;;;;;;;11.72;100.00;98640.95;109368;1253;59280;-74
2023/12/29 11:21:55;;;;;;;2.80;2.10;;;;;;;11.72;100.00;98642.70;109347;1254;58896;-74